createdAt,value
2023-05-05T00:01:02.489Z,99705.06
2023-05-05T00:03:29.871Z,99700.91
2023-05-05T00:05:57.100Z,99705.06
2023-05-05T00:08:24.106Z,99700.94
2023-05-05T00:10:52.356Z,99705.50
2023-05-05T00:13:20.661Z,99698.09
2023-05-05T00:15:49.916Z,99703.06
2023-05-05T00:18:17.905Z,99699.75
2023-05-05T00:20:47.484Z,99705.16
2023-05-05T00:23:19.144Z,99692.31
2023-05-05T00:25:45.971Z,99687.75
2023-05-05T00:28:14.446Z,99690.63
2023-05-05T00:30:41.502Z,99687.53
2023-05-05T00:33:08.313Z,99698.09
2023-05-05T00:35:35.332Z,99688.19
2023-05-05T00:38:03.356Z,99690.22
2023-05-05T00:40:30.184Z,99684.41
2023-05-05T00:42:57.157Z,99684.00
2023-05-05T00:45:24.100Z,99687.75
2023-05-05T00:47:59.145Z,99676.97
2023-05-05T00:50:30.444Z,99685.28
2023-05-05T00:53:01.811Z,99678.22
2023-05-05T00:55:32.979Z,99679.50
2023-05-05T00:58:01.211Z,99674.06
2023-05-05T01:00:28.691Z,99680.75
2023-05-05T01:02:55.981Z,99685.28
2023-05-05T01:05:24.408Z,99682.97
2023-05-05T01:08:22.298Z,99674.53
2023-05-05T01:11:01.668Z,99680.69
2023-05-05T01:14:11.317Z,99679.50
2023-05-05T01:16:41.747Z,99678.47
2023-05-05T01:19:27.062Z,99680.94
2023-05-05T01:21:57.479Z,99685.28
2023-05-05T01:24:42.717Z,99687.38
2023-05-05T01:27:29.373Z,99683.63
2023-05-05T01:30:09.015Z,99681.56
2023-05-05T01:32:51.308Z,99684.06
2023-05-05T01:35:29.180Z,99680.09
2023-05-05T01:38:03.421Z,99682.19
2023-05-05T01:40:38.056Z,99682.81
2023-05-05T01:43:07.694Z,99688.59
2023-05-05T01:45:39.996Z,99679.91
2023-05-05T01:48:08.443Z,99680.28
2023-05-05T01:50:37.097Z,99674.31
2023-05-05T01:53:05.152Z,99673.69
2023-05-05T01:55:33.914Z,99679.66
2023-05-05T01:58:03.639Z,99681.31
2023-05-05T02:00:32.053Z,99677.41
2023-05-05T02:03:01.441Z,99674.94
2023-05-05T02:05:29.373Z,99666.19
2023-05-05T02:07:59.135Z,99671.00
2023-05-05T02:10:26.495Z,99671.78
2023-05-05T02:12:54.177Z,99675.72
2023-05-05T02:15:22.919Z,99669.56
2023-05-05T02:17:54.485Z,99665.81
2023-05-05T02:20:22.735Z,99665.00
2023-05-05T02:22:49.910Z,99658.16
2023-05-05T02:25:18.217Z,99661.88
2023-05-05T02:27:48.348Z,99660.44
2023-05-05T02:30:18.318Z,99659.41
2023-05-05T02:32:55.548Z,99664.38
2023-05-05T02:35:27.294Z,99665.41
2023-05-05T02:38:02.871Z,99648.84
2023-05-05T02:40:33.165Z,99654.66
2023-05-05T02:43:05.089Z,99655.84
2023-05-05T02:45:32.477Z,99648.44
2023-05-05T02:48:04.089Z,99662.09
2023-05-05T02:50:31.984Z,99656.28
2023-05-05T02:52:59.649Z,99661.88
2023-05-05T02:55:32.029Z,99668.09
2023-05-05T02:58:17.292Z,99667.28
2023-05-05T03:01:01.016Z,99670.34
2023-05-05T03:03:47.735Z,99672.63
2023-05-05T03:06:21.576Z,99671.59
2023-05-05T03:09:02.798Z,99669.94
2023-05-05T03:11:35.809Z,99662.50
2023-05-05T03:14:18.542Z,99665.81
2023-05-05T03:16:47.929Z,99657.94
2023-05-05T03:19:18.360Z,99661.47
2023-05-05T03:21:45.602Z,99665.63
2023-05-05T03:24:19.978Z,99668.72
2023-05-05T03:26:48.162Z,99654.25
2023-05-05T03:29:15.448Z,99659.41
2023-05-05T03:31:42.655Z,99662.94
2023-05-05T03:34:09.681Z,99672.00
2023-05-05T03:36:36.669Z,99658.97
2023-05-05T03:39:04.035Z,99662.50
2023-05-05T03:41:30.825Z,99660.03
2023-05-05T03:43:57.567Z,99660.81
2023-05-05T03:46:24.432Z,99650.06
2023-05-05T03:48:51.812Z,99654.19
2023-05-05T03:51:18.613Z,99660.81
2023-05-05T03:53:45.410Z,99660.41
2023-05-05T03:56:12.250Z,99672.81
2023-05-05T03:58:39.045Z,99668.25
2023-05-05T04:01:05.886Z,99686.84
2023-05-05T04:03:32.726Z,99678.16
2023-05-05T04:05:59.575Z,99683.59
2023-05-05T04:08:26.407Z,99677.75
2023-05-05T04:10:53.216Z,99685.63
2023-05-05T04:13:20.192Z,99689.34
2023-05-05T04:15:47.163Z,99688.94
2023-05-05T04:18:14.027Z,99692.44
2023-05-05T04:20:40.983Z,99695.31
2023-05-05T04:23:07.753Z,99687.66
2023-05-05T04:25:34.549Z,99695.97
2023-05-05T04:28:01.748Z,99700.75
2023-05-05T04:30:28.578Z,99703.81
2023-05-05T04:32:55.390Z,99695.72
2023-05-05T04:35:22.522Z,99698.41
2023-05-05T04:37:49.657Z,99694.31
2023-05-05T04:40:16.598Z,99694.91
2023-05-05T04:42:43.343Z,99705.88
2023-05-05T04:45:10.561Z,99709.00
2023-05-05T04:47:38.693Z,99700.69
2023-05-05T04:50:06.622Z,99703.84
2023-05-05T04:52:33.772Z,99703.66
2023-05-05T04:55:01.427Z,99707.59
2023-05-05T04:57:29.749Z,99705.09
2023-05-05T04:59:56.697Z,99713.59
2023-05-05T05:02:23.615Z,99710.09
2023-05-05T05:04:50.401Z,99708.47
2023-05-05T05:07:17.265Z,99714.25
2023-05-05T05:09:44.102Z,99719.03
2023-05-05T05:12:10.869Z,99729.16
2023-05-05T05:14:38.589Z,99721.69
2023-05-05T05:17:06.160Z,99726.06
2023-05-05T05:19:32.986Z,99723.78
2023-05-05T05:21:59.830Z,99729.59
2023-05-05T05:24:30.074Z,99719.66
2023-05-05T05:26:56.859Z,99721.75
2023-05-05T05:29:23.793Z,99721.50
2023-05-05T05:31:50.558Z,99721.97
2023-05-05T05:34:17.400Z,99728.75
2023-05-05T05:36:44.130Z,99732.28
2023-05-05T05:39:10.876Z,99727.50
2023-05-05T05:41:37.634Z,99724.16
2023-05-05T05:44:04.519Z,99717.09
2023-05-05T05:46:32.020Z,99724.91
2023-05-05T05:48:58.797Z,99713.06
2023-05-05T05:51:25.819Z,99707.97
2023-05-05T05:53:52.608Z,99717.22
2023-05-05T05:56:19.326Z,99725.91
2023-05-05T05:58:46.102Z,99731.59
2023-05-05T06:01:12.910Z,99721.44
2023-05-05T06:03:39.890Z,99731.81
2023-05-05T06:06:07.731Z,99722.56
2023-05-05T06:08:34.568Z,99728.19
2023-05-05T06:11:01.384Z,99736.56
2023-05-05T06:13:28.132Z,99738.88
2023-05-05T06:15:55.029Z,99732.41
2023-05-05T06:18:21.890Z,99727.16
2023-05-05T06:20:52.608Z,99720.22
2023-05-05T06:23:19.449Z,99713.81
2023-05-05T06:25:46.284Z,99718.94
2023-05-05T06:28:13.028Z,99725.13
2023-05-05T06:30:39.775Z,99731.81
2023-05-05T06:33:06.579Z,99724.09
2023-05-05T06:35:33.401Z,99723.66
2023-05-05T06:38:00.198Z,99729.22
2023-05-05T06:40:26.987Z,99727.81
2023-05-05T06:42:53.819Z,99730.19
2023-05-05T06:45:20.601Z,99723.63
2023-05-05T06:47:47.647Z,99721.31
2023-05-05T06:50:14.488Z,99732.53
2023-05-05T06:52:42.087Z,99726.72
2023-05-05T06:55:09.305Z,99725.78
2023-05-05T06:57:36.063Z,99722.00
2023-05-05T07:00:07.488Z,99723.50
2023-05-05T07:02:34.517Z,99728.00
2023-05-05T07:05:01.382Z,99723.41
2023-05-05T07:07:28.392Z,99721.03
2023-05-05T07:09:55.126Z,99728.59
2023-05-05T07:12:22.159Z,99726.09
2023-05-05T07:14:49.176Z,99732.94
2023-05-05T07:17:16.234Z,99731.47
2023-05-05T07:19:44.521Z,99729.56
2023-05-05T07:22:11.273Z,99722.78
2023-05-05T07:24:37.988Z,99729.34
2023-05-05T07:27:05.856Z,99734.16
2023-05-05T07:29:32.650Z,99731.66
2023-05-05T07:31:59.808Z,99729.69
2023-05-05T07:34:26.629Z,99732.31
2023-05-05T07:36:53.463Z,99726.25
2023-05-05T07:39:21.341Z,99723.38
2023-05-05T07:41:48.088Z,99724.72
2023-05-05T07:44:14.869Z,99725.94
2023-05-05T07:46:42.009Z,99720.81
2023-05-05T07:49:09.307Z,99719.94
2023-05-05T07:51:36.066Z,99717.19
2023-05-05T07:54:02.820Z,99727.41
2023-05-05T07:56:29.848Z,99722.66
2023-05-05T07:58:56.608Z,99726.34
2023-05-05T08:01:23.526Z,99732.84
2023-05-05T08:03:50.329Z,99727.66
2023-05-05T08:06:22.312Z,99732.38
2023-05-05T08:08:49.824Z,99735.25
2023-05-05T08:11:16.817Z,99728.69
2023-05-05T08:13:44.409Z,99717.56
2023-05-05T08:16:11.661Z,99726.31
2023-05-05T08:18:38.929Z,99728.41
2023-05-05T08:21:07.746Z,99727.97
2023-05-05T08:23:36.028Z,99720.03
2023-05-05T08:26:06.393Z,99728.25
2023-05-05T08:28:37.047Z,99721.34
2023-05-05T08:31:04.737Z,99724.94
2023-05-05T08:33:31.752Z,99725.19
2023-05-05T08:35:58.672Z,99723.81
2023-05-05T08:38:25.514Z,99720.41
2023-05-05T08:40:53.063Z,99712.50
2023-05-05T08:43:23.052Z,99715.13
2023-05-05T08:45:51.854Z,99710.47
2023-05-05T08:48:22.491Z,99714.72
2023-05-05T08:50:56.651Z,99703.47
2023-05-05T08:53:47.122Z,99704.56
2023-05-05T08:56:16.218Z,99704.03
2023-05-05T08:58:44.890Z,99706.03
2023-05-05T09:01:14.123Z,99710.75
2023-05-05T09:03:41.454Z,99714.88
2023-05-05T09:06:09.880Z,99714.91
2023-05-05T09:08:40.280Z,99716.38
2023-05-05T09:11:07.110Z,99706.19
2023-05-05T09:13:34.141Z,99704.41
2023-05-05T09:16:00.978Z,99702.31
2023-05-05T09:18:27.926Z,99705.75
2023-05-05T09:20:56.847Z,99698.41
2023-05-05T09:23:25.824Z,99699.06
2023-05-05T09:26:09.129Z,99696.53
2023-05-05T09:28:36.039Z,99696.03
2023-05-05T09:31:16.372Z,99696.75
2023-05-05T09:33:43.809Z,99697.47
2023-05-05T09:36:11.851Z,99692.25
2023-05-05T09:38:38.731Z,99689.66
2023-05-05T09:41:06.741Z,99692.94
2023-05-05T09:43:53.810Z,99682.03
2023-05-05T09:46:20.759Z,99690.84
2023-05-05T09:48:47.675Z,99690.44
2023-05-05T09:51:14.616Z,99675.50
2023-05-05T09:53:42.720Z,99685.81
2023-05-05T09:56:10.562Z,99674.69
2023-05-05T09:58:37.780Z,99676.56
2023-05-05T10:01:04.594Z,99679.63
2023-05-05T10:03:31.656Z,99678.72
2023-05-05T10:05:59.899Z,99683.69
2023-05-05T10:08:33.903Z,99682.69
2023-05-05T10:11:06.721Z,99677.31
2023-05-05T10:13:43.302Z,99680.25
2023-05-05T10:16:12.858Z,99674.91
2023-05-05T10:18:46.939Z,99679.25
2023-05-05T10:21:20.196Z,99673.03
2023-05-05T10:23:58.637Z,99668.28
2023-05-05T10:26:28.025Z,99667.19
2023-05-05T10:29:01.948Z,99660.31
2023-05-05T10:31:34.720Z,99668.19
2023-05-05T10:34:06.558Z,99659.81
2023-05-05T10:36:34.484Z,99657.44
2023-05-05T10:39:02.881Z,99658.25
2023-05-05T10:41:33.837Z,99656.16
2023-05-05T10:44:04.318Z,99646.13
2023-05-05T10:46:32.361Z,99642.47
2023-05-05T10:49:13.936Z,99635.31
2023-05-05T10:51:51.002Z,99627.06
2023-05-05T10:54:45.511Z,99621.91
2023-05-05T10:57:12.560Z,99624.06
2023-05-05T10:59:41.102Z,99617.69
2023-05-05T11:02:28.176Z,99615.03
2023-05-05T11:05:07.404Z,99618.16
2023-05-05T11:07:34.740Z,99622.66
2023-05-05T11:10:03.112Z,99613.88
2023-05-05T11:12:31.164Z,99611.97
2023-05-05T11:15:31.465Z,99611.44
2023-05-05T11:18:05.718Z,99602.88
2023-05-05T11:20:43.794Z,99597.75
2023-05-05T11:23:10.534Z,99595.53
2023-05-05T11:25:41.330Z,99595.22
2023-05-05T11:28:11.494Z,99592.16
2023-05-05T11:30:59.780Z,99597.59
2023-05-05T11:33:31.707Z,99590.25
2023-05-05T11:36:06.654Z,99597.38
2023-05-05T11:38:36.556Z,99586.38
2023-05-05T11:41:29.233Z,99583.38
2023-05-05T11:44:19.873Z,99583.03
2023-05-05T11:46:52.533Z,99585.66
2023-05-05T11:49:32.550Z,99585.84
2023-05-05T11:52:10.627Z,99583.25
2023-05-05T11:54:47.767Z,99581.66
2023-05-05T11:57:22.580Z,99583.25
2023-05-05T12:00:08.620Z,99580.00
2023-05-05T12:02:36.641Z,99572.19
2023-05-05T12:05:04.472Z,99570.97
2023-05-05T12:07:33.767Z,99563.38
2023-05-05T12:10:01.390Z,99562.59
2023-05-05T12:12:40.682Z,99561.88
2023-05-05T12:15:09.304Z,99562.06
2023-05-05T12:17:39.591Z,99563.69
2023-05-05T12:20:07.986Z,99566.75
2023-05-05T12:22:36.183Z,99562.19
2023-05-05T12:25:06.846Z,99562.03
2023-05-05T12:27:35.567Z,99558.28
2023-05-05T12:30:17.794Z,99556.16
2023-05-05T12:32:47.031Z,99552.88
2023-05-05T12:35:14.634Z,99555.34
2023-05-05T12:37:46.694Z,99549.81
2023-05-05T12:40:49.227Z,99545.91
2023-05-05T12:43:29.040Z,99543.88
2023-05-05T12:46:13.698Z,99544.59
2023-05-05T12:48:48.181Z,99553.84
2023-05-05T12:51:20.991Z,99535.81
2023-05-05T12:53:49.860Z,99547.50
2023-05-05T12:56:43.324Z,99531.97
2023-05-05T12:59:11.948Z,99529.66
2023-05-05T13:01:56.870Z,99533.06
2023-05-05T13:04:26.425Z,99516.94
2023-05-05T13:07:14.324Z,99521.00
2023-05-05T13:09:41.860Z,99518.88
2023-05-05T13:12:12.152Z,99528.03
2023-05-05T13:14:40.360Z,99520.69
2023-05-05T13:17:07.466Z,99517.22
2023-05-05T13:19:36.206Z,99521.69
2023-05-05T13:22:03.600Z,99513.00
2023-05-05T13:24:42.756Z,99511.00
2023-05-05T13:27:17.419Z,99506.03
2023-05-05T13:29:44.411Z,99498.59
2023-05-05T13:32:11.259Z,99493.66
2023-05-05T13:34:39.604Z,99492.19
2023-05-05T13:37:06.977Z,99484.38
2023-05-05T13:39:34.250Z,99474.81
2023-05-05T13:42:01.752Z,99481.56
2023-05-05T13:44:28.721Z,99474.03
2023-05-05T13:46:55.691Z,99471.78
2023-05-05T13:49:22.722Z,99466.72
2023-05-05T13:51:49.645Z,99458.38
2023-05-05T13:54:16.931Z,99463.06
2023-05-05T13:56:44.060Z,99458.97
2023-05-05T13:59:10.870Z,99449.66
2023-05-05T14:01:40.715Z,99451.31
2023-05-05T14:04:07.974Z,99443.94
2023-05-05T14:06:35.913Z,99447.31
2023-05-05T14:09:06.434Z,99446.97
2023-05-05T14:11:34.119Z,99438.94
2023-05-05T14:14:01.964Z,99446.47
2023-05-05T14:16:28.832Z,99438.22
2023-05-05T14:18:55.734Z,99436.25
2023-05-05T14:21:22.484Z,99422.88
2023-05-05T14:23:49.373Z,99421.53
2023-05-05T14:26:16.367Z,99425.78
2023-05-05T14:28:43.783Z,99430.41
2023-05-05T14:31:11.385Z,99435.19
2023-05-05T14:33:38.465Z,99426.91
2023-05-05T14:36:05.672Z,99423.25
2023-05-05T14:38:32.535Z,99430.66
2023-05-05T14:40:59.348Z,99428.47
2023-05-05T14:43:26.295Z,99433.25
2023-05-05T14:45:53.470Z,99431.69
2023-05-05T14:48:22.662Z,99427.63
2023-05-05T14:50:50.112Z,99427.09
2023-05-05T14:53:17.168Z,99426.50
2023-05-05T14:55:44.736Z,99425.31
2023-05-05T14:58:11.492Z,99424.19
2023-05-05T15:00:38.416Z,99432.13
2023-05-05T15:03:05.398Z,99427.31
2023-05-05T15:05:32.326Z,99426.28
2023-05-05T15:07:59.117Z,99433.25
2023-05-05T15:10:26.148Z,99430.16
2023-05-05T15:12:53.004Z,99437.09
2023-05-05T15:15:19.778Z,99429.38
2023-05-05T15:17:46.786Z,99421.28
2023-05-05T15:20:13.604Z,99419.25
2023-05-05T15:22:40.525Z,99415.22
2023-05-05T15:25:11.137Z,99417.69
2023-05-05T15:27:39.785Z,99415.72
2023-05-05T15:30:07.403Z,99424.06
2023-05-05T15:32:34.354Z,99415.34
2023-05-05T15:35:01.378Z,99417.88
2023-05-05T15:37:31.250Z,99421.22
2023-05-05T15:39:58.347Z,99409.09
2023-05-05T15:42:26.056Z,99407.25
2023-05-05T15:44:52.960Z,99405.53
2023-05-05T15:47:19.986Z,99415.34
2023-05-05T15:49:46.964Z,99410.28
2023-05-05T15:52:14.431Z,99406.94
2023-05-05T15:54:41.931Z,99411.03
2023-05-05T15:57:08.966Z,99419.03
2023-05-05T15:59:36.570Z,99417.84
2023-05-05T16:02:03.770Z,99423.56
2023-05-05T16:04:30.701Z,99432.28
2023-05-05T16:06:58.333Z,99420.78
2023-05-05T16:09:25.173Z,99420.81
2023-05-05T16:11:54.876Z,99421.13
2023-05-05T16:14:22.155Z,99412.78
2023-05-05T16:16:49.402Z,99423.16
2023-05-05T16:19:16.378Z,99424.97
2023-05-05T16:21:43.598Z,99428.47
2023-05-05T16:24:10.745Z,99431.47
2023-05-05T16:26:37.594Z,99449.91
2023-05-05T16:29:04.442Z,99443.19
2023-05-05T16:31:34.158Z,99441.53
2023-05-05T16:34:01.476Z,99440.28
2023-05-05T16:36:28.500Z,99444.16
2023-05-05T16:38:55.277Z,99437.63
2023-05-05T16:41:22.998Z,99439.56
2023-05-05T16:43:50.266Z,99443.38
2023-05-05T16:46:17.480Z,99444.19
2023-05-05T16:48:44.394Z,99447.72
2023-05-05T16:51:11.656Z,99436.53
2023-05-05T16:53:38.679Z,99433.25
2023-05-05T16:56:06.336Z,99431.34
2023-05-05T16:58:33.124Z,99434.34
2023-05-05T17:01:02.098Z,99435.72
2023-05-05T17:03:28.865Z,99433.81
2023-05-05T17:05:55.777Z,99431.63
2023-05-05T17:08:22.831Z,99434.63
2023-05-05T17:10:49.684Z,99437.91
2023-05-05T17:13:16.673Z,99441.19
2023-05-05T17:15:44.555Z,99438.44
2023-05-05T17:18:11.425Z,99445.53
2023-05-05T17:20:38.445Z,99442.56
2023-05-05T17:23:05.389Z,99444.72
2023-05-05T17:25:32.438Z,99440.06
2023-05-05T17:27:59.223Z,99435.97
2023-05-05T17:30:26.586Z,99432.97
2023-05-05T17:32:53.542Z,99444.97
2023-05-05T17:35:20.394Z,99464.06
2023-05-05T17:37:47.261Z,99466.28
2023-05-05T17:40:14.129Z,99472.81
2023-05-05T17:42:40.881Z,99483.19
2023-05-05T17:45:08.625Z,99505.50
2023-05-05T17:47:36.900Z,99524.41
2023-05-05T17:50:04.004Z,99531.03
2023-05-05T17:52:31.147Z,99524.13
2023-05-05T17:54:58.150Z,99530.28
2023-05-05T17:57:28.050Z,99559.91
2023-05-05T17:59:54.870Z,99556.38
2023-05-05T18:02:21.792Z,99556.22
2023-05-05T18:04:48.678Z,99563.34
2023-05-05T18:07:15.597Z,99579.50
2023-05-05T18:09:42.806Z,99571.81
2023-05-05T18:12:09.759Z,99570.88
2023-05-05T18:14:36.941Z,99577.59
2023-05-05T18:17:04.984Z,99577.84
2023-05-05T18:19:31.883Z,99579.16
2023-05-05T18:21:59.352Z,99575.63
2023-05-05T18:24:26.749Z,99584.00
2023-05-05T18:26:53.780Z,99593.78
2023-05-05T18:29:24.767Z,99596.03
2023-05-05T18:31:53.874Z,99593.66
2023-05-05T18:34:21.130Z,99592.38
2023-05-05T18:36:50.668Z,99592.28
2023-05-05T18:39:18.062Z,99580.94
2023-05-05T18:41:45.155Z,99584.06
2023-05-05T18:44:12.136Z,99589.66
2023-05-05T18:46:39.317Z,99580.94
2023-05-05T18:49:06.484Z,99581.25
2023-05-05T18:51:33.530Z,99582.19
2023-05-05T18:54:01.188Z,99585.50
2023-05-05T18:56:28.180Z,99577.25
2023-05-05T18:58:55.092Z,99577.25
2023-05-05T19:01:22.382Z,99578.88
2023-05-05T19:03:50.129Z,99578.28
2023-05-05T19:06:17.932Z,99586.84
2023-05-05T19:08:45.860Z,99585.53
2023-05-05T19:11:14.980Z,99587.34
2023-05-05T19:13:42.242Z,99585.19
2023-05-05T19:16:10.516Z,99579.47
2023-05-05T19:18:37.606Z,99587.84
2023-05-05T19:21:04.480Z,99596.22
2023-05-05T19:23:32.470Z,99606.81
2023-05-05T19:25:59.405Z,99610.59
2023-05-05T19:28:26.188Z,99613.66
2023-05-05T19:30:52.975Z,99615.09
2023-05-05T19:33:19.788Z,99613.91
2023-05-05T19:35:46.828Z,99621.31
2023-05-05T19:38:13.720Z,99627.00
2023-05-05T19:40:41.566Z,99626.75
2023-05-05T19:43:08.486Z,99618.03
2023-05-05T19:45:35.800Z,99617.44
2023-05-05T19:48:02.706Z,99618.50
2023-05-05T19:50:30.593Z,99623.09
2023-05-05T19:52:58.151Z,99615.78
2023-05-05T19:55:25.192Z,99614.38
2023-05-05T19:57:51.991Z,99614.94
2023-05-05T20:00:19.891Z,99622.50
2023-05-05T20:02:48.931Z,99624.75
2023-05-05T20:05:17.804Z,99629.25
2023-05-05T20:07:46.530Z,99626.91
2023-05-05T20:10:16.875Z,99630.63
2023-05-05T20:12:48.482Z,99627.56
2023-05-05T20:15:19.519Z,99635.13
2023-05-05T20:17:50.146Z,99634.28
2023-05-05T20:20:21.694Z,99635.22
2023-05-05T20:22:49.428Z,99631.94
2023-05-05T20:25:17.002Z,99637.00
2023-05-05T20:27:45.859Z,99629.72
2023-05-05T20:30:13.401Z,99635.94
2023-05-05T20:32:41.077Z,99632.41
2023-05-05T20:35:08.501Z,99642.06
2023-05-05T20:37:35.286Z,99640.06
2023-05-05T20:40:02.080Z,99645.16
2023-05-05T20:42:29.956Z,99648.31
2023-05-05T20:44:56.880Z,99643.53
2023-05-05T20:47:24.515Z,99647.47
2023-05-05T20:49:52.686Z,99642.06
2023-05-05T20:52:19.652Z,99644.91
2023-05-05T20:54:46.562Z,99640.66
2023-05-05T20:57:13.390Z,99628.41
2023-05-05T20:59:40.180Z,99630.66
2023-05-05T21:02:07.764Z,99629.94
2023-05-05T21:04:34.734Z,99632.78
2023-05-05T21:07:01.677Z,99636.31
2023-05-05T21:09:28.574Z,99644.44
2023-05-05T21:11:55.420Z,99638.53
2023-05-05T21:14:22.415Z,99649.00
2023-05-05T21:16:49.366Z,99640.19
2023-05-05T21:19:16.667Z,99635.25
2023-05-05T21:21:43.477Z,99641.84
2023-05-05T21:24:10.754Z,99642.66
2023-05-05T21:26:37.579Z,99644.31
2023-05-05T21:29:04.437Z,99645.16
2023-05-05T21:31:31.259Z,99649.47
2023-05-05T21:33:58.000Z,99643.34
2023-05-05T21:36:24.978Z,99647.44
2023-05-05T21:38:51.808Z,99644.75
2023-05-05T21:41:18.569Z,99648.72
2023-05-05T21:43:45.426Z,99648.59
2023-05-05T21:46:12.426Z,99645.75
2023-05-05T21:48:40.225Z,99641.16
2023-05-05T21:51:07.385Z,99649.06
2023-05-05T21:53:34.366Z,99642.53
2023-05-05T21:56:01.584Z,99642.16
2023-05-05T21:58:29.297Z,99637.22
2023-05-05T22:00:56.043Z,99636.28
2023-05-05T22:03:22.953Z,99630.66
2023-05-05T22:05:49.794Z,99628.91
2023-05-05T22:08:16.607Z,99628.53
2023-05-05T22:10:43.306Z,99620.41
2023-05-05T22:13:10.810Z,99626.88
2023-05-05T22:15:45.803Z,99619.91
2023-05-05T22:18:13.724Z,99617.50
2023-05-05T22:20:41.145Z,99617.44
2023-05-05T22:23:08.062Z,99625.31
2023-05-05T22:25:35.215Z,99617.44
2023-05-05T22:28:02.871Z,99629.69
2023-05-05T22:30:29.719Z,99630.88
2023-05-05T22:32:56.599Z,99636.91
2023-05-05T22:35:23.553Z,99644.28
2023-05-05T22:37:50.363Z,99639.22
2023-05-05T22:40:17.230Z,99645.94
2023-05-05T22:42:44.234Z,99641.03
2023-05-05T22:45:11.695Z,99638.22
2023-05-05T22:47:38.731Z,99637.75
2023-05-05T22:50:06.518Z,99635.97
2023-05-05T22:52:33.289Z,99628.59
2023-05-05T22:55:00.086Z,99631.28
2023-05-05T22:57:26.823Z,99635.91
2023-05-05T22:59:53.585Z,99632.50
2023-05-05T23:02:20.368Z,99631.66
2023-05-05T23:04:47.187Z,99628.72
2023-05-05T23:07:14.036Z,99633.53
2023-05-05T23:09:41.218Z,99626.47
2023-05-05T23:12:08.054Z,99622.47
2023-05-05T23:14:36.950Z,99618.94
2023-05-05T23:17:03.933Z,99621.06
2023-05-05T23:19:32.752Z,99624.47
2023-05-05T23:21:59.995Z,99621.97
2023-05-05T23:24:27.278Z,99626.00
2023-05-05T23:26:54.983Z,99625.53
2023-05-05T23:29:21.735Z,99620.69
2023-05-05T23:31:48.794Z,99625.88
2023-05-05T23:34:15.839Z,99629.19
2023-05-05T23:36:42.772Z,99633.06
2023-05-05T23:39:09.538Z,99632.94
2023-05-05T23:41:36.415Z,99632.59
2023-05-05T23:44:03.605Z,99632.94
2023-05-05T23:46:30.786Z,99635.19
2023-05-05T23:48:57.568Z,99629.19
2023-05-05T23:51:24.427Z,99641.31
2023-05-05T23:53:51.174Z,99644.16
2023-05-05T23:56:17.996Z,99641.31
2023-05-05T23:58:44.768Z,99637.63
